Aeroporto :
LOGIN :

Iscrizione | Disclaimer

   EN    FR    IT 

 










Sommario :    VFR   VFR Marginale   IFR   IFR Intensivo   IFR Molto Intensivo
Visibilità : 
Base nubi : 
>= 8 km
>= 3000ft
5 / 8 km
1000 / 3000 ft
1500m / 5 km
500 / 1000 ft
800 / 1500m
200 / 500 ft
< 800m
< 200 ft
Simboli :   Temporali  Nebbia  Neve Forte  Precipitazioni Forti  Vento > 20 kt
SIGMETs :   Varie  Temporali  Ghiacco  Turbolenza  Onda orograficha  Ceneri Vulcaniche






- Altitudine del aeroporto : 584 ft


EPRA - Radom

ULTIMO METAR :
  • 240800Z 02006KT 6000 -RA BKN007 OVC011 05/05 Q1005

METARs OBSOLETI :
  • 240730Z 02004KT 350V050 4800 -RA BR SCT006 OVC011 05/04 Q1005
  • 240700Z 04005KT 6000 SCT007 OVC014 05/03 Q1005
  • 240630Z 36005KT 9999 BKN016 06/03 Q1005
  • 240600Z 03005KT 9999 OVC017 06/03 Q1006
  • 240530Z 03005KT 9999 OVC018 06/03 Q1006
  • 240500Z 01006KT 9999 OVC021 06/03 Q1006
  • 240430Z 02006KT 9999 OVC021 06/02 Q1006
  • 240400Z 03005KT 360V070 9999 OVC021 06/02 Q1007
  • 240330Z 04005KT 9999 OVC021 06/02 Q1007

TAF TAF EPRA
Valido dal 24 a 06 ore il 24 a 15 ore UTC


240530Z 2406/2415 03007KT 9999 BKN020
TEMPO 2406/2415 -RA BKN014



MetMap, La meteo Aeronautica in un colpo d'occhio ! - Copyright ORBIFLY Dicembre 2007 - Disclaimer

ORBIFLY MET'MAP TEAM :

Programmazione e sviluppo : Alexandra Zaïnal
Concezione : Baudouin d'Aumeries
Supporto tecnico e logistico : Manuel Goepfert
Aiuto : Marc-Olivier Méhu
Aiuto per la traduzione : Arnaldo La Scala




FONTI E CREDITI :

   NOAA